Time;durP1;ratioP1;P1;durP2;ratioP2;P2;SDS_P1;SDS_P2;PMS_P1;PMS_P2;Temp;Humidity;BMP_temperature;BMP_pressure;BME280_temperature;BME280_humidity;BME280_pressure;Samples;Min_cycle;Max_cycle;Signal;HPM_P1;HPM_P2
2021/09/21 00:00:18;;;;;;;;;;;;;;;22.25;47.07;96271.81;1056593;28;1063;-62
2021/09/21 00:00:49;;;;;;;;;;;;;;;22.24;47.10;96267.56;1055755;28;2260;-63
2021/09/21 00:01:19;;;;;;;;;;;;;;;22.24;47.19;96267.56;1056870;28;1189;-62
2021/09/21 00:01:49;;;;;;;;;;;;;;;22.24;47.08;96264.94;1048655;28;1122;-62
2021/09/21 00:02:19;;;;;;;;;;;;;;;22.23;46.93;96268.66;1047617;28;1354;-62
2021/09/21 00:02:50;;;;;;;;;;;;;;;22.23;47.08;96266.00;1047108;28;1160;-62
2021/09/21 00:03:25;;;;;;;;;;;;;;;22.23;47.24;96259.94;1048327;28;1147;-62
2021/09/21 00:03:55;;;;;;;;;;;;;;;22.23;47.15;96266.00;1042604;28;1525;-62
2021/09/21 00:04:29;;;;;;;;;;;;;;;22.23;47.22;96265.22;1047903;28;1147;-62
2021/09/21 00:04:59;;;;;;;;;;;;;;;22.23;47.31;96262.56;1048455;28;1234;-63
2021/09/21 00:05:29;;;;;;;;;;;;;;;22.22;47.45;96260.97;1048118;28;1633;-62
2021/09/21 00:06:00;;;;;;;;;;;;;;;22.22;47.07;96264.41;1046296;28;1872;-62
2021/09/21 00:06:30;;;;;;;;;;;;;;;22.21;47.18;96262.84;1048619;28;973;-63
2021/09/21 00:07:01;;;;;;;;;;;;;;;22.22;47.00;96261.78;1048444;28;1045;-62
2021/09/21 00:07:31;;;;;;;;;;;;;;;22.22;47.04;96263.63;1048315;28;1150;-62
2021/09/21 00:08:01;;;;;;;;;;;;;;;22.22;47.36;96261.78;1048054;28;1085;-62
2021/09/21 00:08:32;;;;;;;;;;;;;;;22.21;47.23;96260.22;1048524;28;1147;-63
2021/09/21 00:09:03;;;;;;;;;;;;;;;22.23;46.81;96262.56;1044188;28;1104;-62
2021/09/21 00:09:33;;;;;;;;;;;;;;;22.22;46.97;96260.97;1044205;28;1286;-62
2021/09/21 00:10:04;;;;;;;;;;;;;;;22.22;46.72;96256.50;1039837;28;1514;-63
2021/09/21 00:10:34;;;;;;;;;;;;;;;22.22;47.18;96267.06;1044426;28;1045;-62
2021/09/21 00:11:05;;;;;;;;;;;;;;;22.21;47.09;96257.56;1047642;28;1924;-62
2021/09/21 00:11:35;;;;;;;;;;;;;;;22.21;47.17;96265.50;1045898;28;1848;-60
2021/09/21 00:12:06;;;;;;;;;;;;;;;22.22;46.96;96260.97;1048447;28;1079;-62
2021/09/21 00:12:36;;;;;;;;;;;;;;;22.21;46.83;96257.56;1048353;28;1029;-63
2021/09/21 00:13:06;;;;;;;;;;;;;;;22.22;47.13;96261.78;1048045;28;1092;-61
2021/09/21 00:13:37;;;;;;;;;;;;;;;22.21;46.96;96254.94;1044023;28;1722;-63
2021/09/21 00:14:07;;;;;;;;;;;;;;;22.21;47.07;96259.41;1043817;28;969;-62
2021/09/21 00:14:38;;;;;;;;;;;;;;;22.22;47.10;96260.97;1048377;28;1127;-62
2021/09/21 00:15:09;;;;;;;;;;;;;;;22.21;47.02;96257.56;1044247;28;1147;-62
2021/09/21 00:15:39;;;;;;;;;;;;;;;22.21;47.09;96260.22;1044289;28;1303;-62
2021/09/21 00:16:10;;;;;;;;;;;;;;;22.21;47.24;96259.41;1043121;28;2021;-62
2021/09/21 00:16:40;;;;;;;;;;;;;;;22.22;47.39;96258.34;1044535;28;1068;-63
2021/09/21 00:17:11;;;;;;;;;;;;;;;22.21;46.90;96254.13;1048533;28;1981;-61
2021/09/21 00:17:41;;;;;;;;;;;;;;;22.21;47.07;96254.13;1047150;28;1441;-62
2021/09/21 00:18:11;;;;;;;;;;;;;;;22.20;47.10;96263.91;1043954;28;1167;-62
2021/09/21 00:18:42;;;;;;;;;;;;;;;22.20;47.28;96258.63;1044346;28;1076;-60
2021/09/21 00:19:12;;;;;;;;;;;;;;;22.20;46.87;96258.63;1044471;28;1107;-62
2021/09/21 00:19:43;;;;;;;;;;;;;;;22.20;46.98;96260.47;1048375;28;1226;-62
2021/09/21 00:20:13;;;;;;;;;;;;;;;22.20;47.04;96261.25;1048521;28;1441;-63
2021/09/21 00:20:44;;;;;;;;;;;;;;;22.19;47.04;96258.91;1048718;28;1375;-63
2021/09/21 00:21:14;;;;;;;;;;;;;;;22.20;47.04;96258.63;1047229;28;2029;-63
2021/09/21 00:21:44;;;;;;;;;;;;;;;22.20;46.97;96263.09;1045278;28;1048;-62
2021/09/21 00:22:15;;;;;;;;;;;;;;;22.19;47.20;96251.78;1048555;28;1098;-63
2021/09/21 00:22:45;;;;;;;;;;;;;;;22.20;47.34;96257.81;1047266;28;1729;-63
2021/09/21 00:23:15;;;;;;;;;;;;;;;22.19;47.16;96257.06;1048474;28;1172;-63
2021/09/21 00:23:45;;;;;;;;;;;;;;;22.18;46.89;96255.47;1047343;28;2260;-63
2021/09/21 00:24:16;;;;;;;;;;;;;;;22.19;47.30;96259.69;1046838;28;2068;-62
2021/09/21 00:24:46;;;;;;;;;;;;;;;22.19;47.10;96261.53;1047305;28;2074;-63
2021/09/21 00:25:17;;;;;;;;;;;;;;;22.19;47.27;96256.25;1048327;28;1398;-63
2021/09/21 00:25:48;;;;;;;;;;;;;;;22.18;46.99;96247.53;1052724;28;1055;-63
2021/09/21 00:26:18;;;;;;;;;;;;;;;22.18;47.00;96250.19;1055228;28;2079;-63
2021/09/21 00:26:48;;;;;;;;;;;;;;;22.18;46.93;96252.81;1052338;28;1266;-63
2021/09/21 00:27:19;;;;;;;;;;;;;;;22.18;47.24;96250.19;1048371;28;1318;-63
2021/09/21 00:27:49;;;;;;;;;;;;;;;22.18;47.13;96249.38;1043931;28;1073;-63
2021/09/21 00:28:19;;;;;;;;;;;;;;;22.17;46.89;96251.25;1044141;28;1179;-63
2021/09/21 00:28:50;;;;;;;;;;;;;;;22.18;46.82;96247.53;1048233;28;1072;-63
2021/09/21 00:29:20;;;;;;;;;;;;;;;22.18;47.12;96247.53;1048310;28;1131;-63
2021/09/21 00:29:51;;;;;;;;;;;;;;;22.17;46.79;96245.97;1048431;28;1142;-63
2021/09/21 00:30:22;;;;;;;;;;;;;;;22.17;46.99;96248.63;1047274;28;2147;-63
2021/09/21 00:30:53;;;;;;;;;;;;;;;22.18;46.98;96249.38;1047548;28;2428;-62
2021/09/21 00:31:23;;;;;;;;;;;;;;;22.18;46.89;96244.91;1046472;28;2155;-64
2021/09/21 00:32:00;;;;;;;;;;;;;;;22.18;46.73;96244.91;1047721;28;1060;-63
2021/09/21 00:32:30;;;;;;;;;;;;;;;22.17;46.89;96251.25;1047882;28;1822;-64
2021/09/21 00:33:05;;;;;;;;;;;;;;;22.18;46.99;96244.91;1046859;28;910;-63
2021/09/21 00:34:06;;;;;;;;;;;;;;;22.17;46.85;96238.06;1047933;28;1590;-63
2021/09/21 00:34:38;;;;;;;;;;;;;;;22.17;47.05;96245.97;1046721;28;1119;-63
2021/09/21 00:35:08;;;;;;;;;;;;;;;22.17;46.90;96245.97;1047828;28;1125;-63
2021/09/21 00:35:39;;;;;;;;;;;;;;;22.16;47.26;96252.28;1046544;28;1585;-63
2021/09/21 00:36:09;;;;;;;;;;;;;;;22.17;46.91;96242.53;1048368;28;2092;-63
2021/09/21 00:36:41;;;;;;;;;;;;;;;22.16;47.14;96241.75;1047846;28;2681;-63
2021/09/21 00:37:12;;;;;;;;;;;;;;;22.16;46.92;96241.75;1048444;28;1961;-63
2021/09/21 00:37:42;;;;;;;;;;;;;;;22.16;47.36;96248.88;1048146;28;1205;-63
2021/09/21 00:38:13;;;;;;;;;;;;;;;22.16;47.06;96247.00;1048115;28;1138;-63
2021/09/21 00:38:44;;;;;;;;;;;;;;;22.16;46.93;96248.88;1048332;28;1052;-63
2021/09/21 00:39:14;;;;;;;;;;;;;;;22.16;46.94;96246.22;1048083;28;978;-63
2021/09/21 00:39:44;;;;;;;;;;;;;;;22.16;46.97;96244.38;1048503;28;1162;-63
2021/09/21 00:40:15;;;;;;;;;;;;;;;22.16;46.94;96252.28;1048448;28;1126;-63
2021/09/21 00:40:45;;;;;;;;;;;;;;;22.17;47.05;96247.81;1043953;28;1564;-63
2021/09/21 00:41:18;;;;;;;;;;;;;;;22.16;47.38;96249.66;1041582;28;2051;-63
2021/09/21 00:41:48;;;;;;;;;;;;;;;22.15;46.97;96256.00;1044411;28;1168;-63
2021/09/21 00:42:22;;;;;;;;;;;;;;;22.16;46.91;96254.94;1048244;28;1115;-61
2021/09/21 00:42:52;;;;;;;;;;;;;;;22.16;47.04;96254.94;1043917;28;1363;-63
2021/09/21 00:43:23;;;;;;;;;;;;;;;22.15;47.09;96253.38;1043212;28;1485;-63
2021/09/21 00:43:53;;;;;;;;;;;;;;;22.16;46.84;96252.28;1044224;28;1096;-63
2021/09/21 00:44:23;;;;;;;;;;;;;;;22.15;47.07;96255.22;1044024;28;1021;-63
2021/09/21 00:44:55;;;;;;;;;;;;;;;22.16;47.33;96256.78;1048808;28;1197;-63
2021/09/21 00:45:25;;;;;;;;;;;;;;;22.16;47.04;96254.94;1048337;28;1285;-63
2021/09/21 00:45:55;;;;;;;;;;;;;;;22.14;47.14;96249.13;1048684;28;1032;-63
2021/09/21 00:46:26;;;;;;;;;;;;;;;22.15;46.96;96249.94;1047295;28;2066;-63
2021/09/21 00:46:56;;;;;;;;;;;;;;;22.16;46.90;96256.78;1048758;28;1119;-61
2021/09/21 00:47:27;;;;;;;;;;;;;;;22.15;46.93;96258.66;1048468;28;1247;-64
2021/09/21 00:47:57;;;;;;;;;;;;;;;22.16;46.76;96257.56;1047174;28;1221;-64
2021/09/21 00:48:28;;;;;;;;;;;;;;;22.15;46.89;96250.72;1048760;28;1154;-63
2021/09/21 00:48:58;;;;;;;;;;;;;;;22.15;46.86;96253.38;1049064;28;1068;-63
2021/09/21 00:49:28;;;;;;;;;;;;;;;22.15;47.14;96257.84;1048888;28;1091;-63
2021/09/21 00:49:59;;;;;;;;;;;;;;;22.15;47.07;96253.38;1048988;28;1193;-63
2021/09/21 00:50:29;;;;;;;;;;;;;;;22.15;46.90;96256.00;1049245;28;1123;-63
2021/09/21 00:51:00;;;;;;;;;;;;;;;22.15;47.01;96256.00;1049106;28;1177;-63
2021/09/21 00:51:30;;;;;;;;;;;;;;;22.13;47.06;96252.84;1048122;28;2061;-63
2021/09/21 00:52:02;;;;;;;;;;;;;;;22.14;47.04;96259.69;1049321;28;1127;-63
2021/09/21 00:52:32;;;;;;;;;;;;;;;22.14;46.97;96254.41;1048812;28;1150;-63
2021/09/21 00:53:03;;;;;;;;;;;;;;;22.14;47.00;96259.69;1048286;28;1639;-62
2021/09/21 00:53:33;;;;;;;;;;;;;;;22.14;47.00;96257.06;1049019;28;839;-62
2021/09/21 00:54:03;;;;;;;;;;;;;;;22.14;47.01;96258.91;1048725;28;1123;-63
2021/09/21 00:54:34;;;;;;;;;;;;;;;22.13;46.70;96258.13;1048966;28;1115;-63
2021/09/21 00:55:05;;;;;;;;;;;;;;;22.14;47.12;96264.19;1049072;28;1124;-62
2021/09/21 00:55:35;;;;;;;;;;;;;;;22.13;47.13;96258.13;1048892;28;1185;-62
2021/09/21 00:56:05;;;;;;;;;;;;;;;22.13;47.02;96255.50;1047203;28;2387;-62
2021/09/21 00:56:36;;;;;;;;;;;;;;;22.13;47.01;96258.13;1044207;28;2423;-63
2021/09/21 00:57:07;;;;;;;;;;;;;;;22.13;47.13;96257.34;1044824;28;1906;-62
2021/09/21 00:57:37;;;;;;;;;;;;;;;22.13;47.32;96259.97;1044738;28;1115;-63
2021/09/21 00:58:08;;;;;;;;;;;;;;;22.12;47.17;96255.75;1044679;28;1112;-63
2021/09/21 00:58:38;;;;;;;;;;;;;;;22.12;47.08;96253.91;1045185;28;854;-63
2021/09/21 00:59:08;;;;;;;;;;;;;;;22.11;46.96;96260.25;1048903;28;1010;-63
2021/09/21 00:59:39;;;;;;;;;;;;;;;22.12;46.87;96251.25;1049602;28;991;-63
2021/09/21 01:00:10;;;;;;;;;;;;;;;22.13;46.96;96263.41;1048887;28;1258;-63
2021/09/21 01:00:40;;;;;;;;;;;;;;;22.13;47.16;96255.50;1049005;28;1001;-63
2021/09/21 01:01:10;;;;;;;;;;;;;;;22.13;46.91;96255.50;1048353;28;1503;-63
2021/09/21 01:01:41;;;;;;;;;;;;;;;22.13;46.98;96258.13;1045454;28;2079;-62
2021/09/21 01:02:11;;;;;;;;;;;;;;;22.13;46.74;96252.06;1048672;28;969;-63
2021/09/21 01:02:41;;;;;;;;;;;;;;;22.14;47.09;96253.63;1047817;28;1119;-62
2021/09/21 01:03:12;;;;;;;;;;;;;;;22.12;46.82;96248.63;1048934;28;1175;-61
2021/09/21 01:03:42;;;;;;;;;;;;;;;22.12;46.99;96255.75;1048452;28;1870;-63
2021/09/21 01:04:12;;;;;;;;;;;;;;;22.12;46.72;96253.91;1049189;28;1018;-63
2021/09/21 01:04:43;;;;;;;;;;;;;;;22.12;47.10;96247.81;1049212;28;1130;-63
2021/09/21 01:05:13;;;;;;;;;;;;;;;22.13;47.12;96246.78;1044690;28;1380;-63
2021/09/21 01:05:44;;;;;;;;;;;;;;;22.12;47.01;96250.47;1044812;28;1311;-63
2021/09/21 01:06:14;;;;;;;;;;;;;;;22.12;47.01;96258.38;1044842;28;1194;-62
2021/09/21 01:06:44;;;;;;;;;;;;;;;22.11;47.18;96249.69;1044040;28;2074;-63
2021/09/21 01:07:15;;;;;;;;;;;;;;;22.11;46.99;96254.97;1048419;28;2123;-63
2021/09/21 01:07:51;;;;;;;;;;;;;;;22.11;47.22;96251.53;1049226;28;1012;-62
2021/09/21 01:08:29;;;;;;;;;;;;;;;22.10;46.86;96253.38;1049114;28;1123;-63
2021/09/21 01:09:01;;;;;;;;;;;;;;;22.11;46.88;96251.53;1048822;28;1251;-63
2021/09/21 01:09:35;;;;;;;;;;;;;;;22.11;46.98;96248.91;1057511;28;946;-62
2021/09/21 01:10:24;;;;;;;;;;;;;;;22.10;47.16;96250.75;1051652;28;998;-62
2021/09/21 01:10:57;;;;;;;;;;;;;;;22.10;47.15;96253.38;1043147;28;1521;-63
2021/09/21 01:11:27;;;;;;;;;;;;;;;22.11;47.00;96248.91;1041919;28;1816;-63
2021/09/21 01:11:59;;;;;;;;;;;;;;;22.11;46.86;96254.19;1035609;28;2062;-63
2021/09/21 01:12:49;;;;;;;;;;;;;;;22.11;46.80;96248.91;1048046;28;1047;-63
2021/09/21 01:13:39;;;;;;;;;;;;;;;22.10;46.86;96253.38;1053257;28;992;-63
2021/09/21 01:14:22;;;;;;;;;;;;;;;22.10;46.92;96249.94;1048928;28;1327;-63
2021/09/21 01:14:52;;;;;;;;;;;;;;;22.10;47.23;96255.22;1048876;28;1021;-63
2021/09/21 01:15:23;;;;;;;;;;;;;;;22.09;46.87;96251.78;1048893;28;1260;-62
2021/09/21 01:15:53;;;;;;;;;;;;;;;22.09;46.95;96254.44;1049099;28;1127;-63
2021/09/21 01:16:24;;;;;;;;;;;;;;;22.09;47.03;96253.66;1049380;28;1217;-63
2021/09/21 01:16:56;;;;;;;;;;;;;;;22.08;47.08;96252.88;1043837;28;2127;-61
2021/09/21 01:17:27;;;;;;;;;;;;;;;22.08;46.90;96250.22;1044662;28;1251;-62
2021/09/21 01:18:18;;;;;;;;;;;;;;;22.10;47.11;96253.38;1043831;28;1267;-63
2021/09/21 01:19:14;;;;;;;;;;;;;;;22.09;46.80;96249.16;1044967;28;1115;-61
2021/09/21 01:20:05;;;;;;;;;;;;;;;22.09;46.90;96256.31;1047735;28;1463;-62
2021/09/21 01:20:35;;;;;;;;;;;;;;;22.08;47.05;96252.88;1046848;28;1433;-63
2021/09/21 01:21:06;;;;;;;;;;;;;;;22.08;47.06;96258.16;1048924;28;1045;-63
2021/09/21 01:21:37;;;;;;;;;;;;;;;22.07;47.03;96259.19;1049309;28;1095;-63
2021/09/21 01:22:19;;;;;;;;;;;;;;;22.07;47.18;96251.28;1045531;28;2147;-63
2021/09/21 01:23:09;;;;;;;;;;;;;;;22.08;47.24;96260.00;1050744;28;1271;-63
2021/09/21 01:24:00;;;;;;;;;;;;;;;22.07;46.93;96253.16;1047157;28;1416;-63
2021/09/21 01:24:47;;;;;;;;;;;;;;;22.06;46.90;96249.72;1049116;28;1044;-63
2021/09/21 01:25:18;;;;;;;;;;;;;;;22.07;47.38;96261.06;1049029;28;1260;-63
2021/09/21 01:25:48;;;;;;;;;;;;;;;22.06;47.04;96256.81;1049072;28;1109;-63
2021/09/21 01:26:19;;;;;;;;;;;;;;;22.06;47.02;96247.06;1048993;28;1170;-63
2021/09/21 01:26:49;;;;;;;;;;;;;;;22.06;46.72;96256.81;1044557;28;1496;-63
2021/09/21 01:27:20;;;;;;;;;;;;;;;22.06;47.13;96252.34;1045129;28;1123;-62
2021/09/21 01:28:13;;;;;;;;;;;;;;;22.06;47.06;96257.63;1048704;28;1062;-61
2021/09/21 01:29:03;;;;;;;;;;;;;;;22.06;46.77;96252.34;1048111;28;1660;-63
2021/09/21 01:29:39;;;;;;;;;;;;;;;22.06;47.07;96249.72;1048696;28;1724;-62
2021/09/21 01:30:11;;;;;;;;;;;;;;;22.06;47.08;96257.63;1048420;28;957;-63
2021/09/21 01:30:41;;;;;;;;;;;;;;;22.06;47.06;96256.81;1049310;28;1197;-62
2021/09/21 01:31:11;;;;;;;;;;;;;;;22.05;46.90;96253.41;1049209;28;1110;-63
2021/09/21 01:31:42;;;;;;;;;;;;;;;22.05;46.89;96253.41;1049120;28;1043;-63
2021/09/21 01:32:12;;;;;;;;;;;;;;;22.06;47.13;96251.56;1049177;28;1186;-63
2021/09/21 01:32:43;;;;;;;;;;;;;;;22.05;46.79;96256.03;1047531;28;1380;-63
2021/09/21 01:33:18;;;;;;;;;;;;;;;22.05;47.01;96258.66;1048521;28;1108;-63
2021/09/21 01:33:48;;;;;;;;;;;;;;;22.05;46.76;96256.03;1047429;28;2140;-63
2021/09/21 01:34:19;;;;;;;;;;;;;;;22.06;46.90;96251.56;1045747;28;2399;-64
2021/09/21 01:34:49;;;;;;;;;;;;;;;22.05;46.98;96256.03;1048025;28;2099;-63
2021/09/21 01:35:20;;;;;;;;;;;;;;;22.06;46.84;96259.47;1056918;28;1335;-61
2021/09/21 01:35:50;;;;;;;;;;;;;;;22.07;46.97;96261.06;1055263;28;1418;-62
2021/09/21 01:36:21;;;;;;;;;;;;;;;22.05;47.14;96261.31;1055676;28;1236;-63
2021/09/21 01:36:51;;;;;;;;;;;;;;;22.06;46.84;96259.47;1054984;28;1897;-62
2021/09/21 01:37:24;;;;;;;;;;;;;;;22.05;47.20;96266.59;1049066;28;1202;-63
2021/09/21 01:37:54;;;;;;;;;;;;;;;22.06;47.03;96272.66;1046862;28;978;-62
2021/09/21 01:38:25;;;;;;;;;;;;;;;22.05;47.01;96266.59;1049154;28;1197;-63
2021/09/21 01:38:55;;;;;;;;;;;;;;;22.04;47.33;96264.22;1046454;28;2485;-62
2021/09/21 01:39:25;;;;;;;;;;;;;;;22.04;47.32;96274.78;1048837;28;1158;-63
2021/09/21 01:39:56;;;;;;;;;;;;;;;22.04;47.03;96267.66;1048915;28;1131;-63
2021/09/21 01:40:26;;;;;;;;;;;;;;;22.04;46.96;96264.22;1048850;28;1155;-62
2021/09/21 01:40:57;;;;;;;;;;;;;;;22.04;46.70;96272.94;1053110;28;1203;-63
2021/09/21 01:41:27;;;;;;;;;;;;;;;22.04;46.91;96270.31;1057150;28;1119;-62
2021/09/21 01:41:57;;;;;;;;;;;;;;;22.03;46.94;96268.72;1057226;28;1095;-62
2021/09/21 01:42:28;;;;;;;;;;;;;;;22.05;46.85;96271.88;1058498;27;1245;-62
2021/09/21 01:42:58;;;;;;;;;;;;;;;22.04;47.12;96264.22;1048593;28;1293;-63
2021/09/21 01:43:28;;;;;;;;;;;;;;;22.04;47.22;96272.16;1049276;28;1045;-63
2021/09/21 01:43:59;;;;;;;;;;;;;;;22.03;46.94;96266.06;1047690;28;2134;-63
2021/09/21 01:44:29;;;;;;;;;;;;;;;22.04;47.13;96267.66;1048668;28;1090;-63
2021/09/21 01:44:59;;;;;;;;;;;;;;;22.03;46.76;96270.59;1048195;28;1589;-62
2021/09/21 01:45:30;;;;;;;;;;;;;;;22.02;46.81;96269.78;1048769;28;1205;-62
2021/09/21 01:46:00;;;;;;;;;;;;;;;22.03;46.93;96268.72;1048516;28;1057;-63
2021/09/21 01:46:30;;;;;;;;;;;;;;;22.04;46.98;96270.31;1049184;28;1411;-63
2021/09/21 01:47:04;;;;;;;;;;;;;;;22.03;46.99;96267.94;1048934;28;1437;-63
2021/09/21 01:47:35;;;;;;;;;;;;;;;22.03;46.78;96268.72;1046113;28;1071;-62
2021/09/21 01:48:05;;;;;;;;;;;;;;;22.03;46.98;96267.94;1048261;28;1328;-63
2021/09/21 01:48:35;;;;;;;;;;;;;;;22.03;47.05;96268.72;1046639;28;2432;-64
2021/09/21 01:49:06;;;;;;;;;;;;;;;22.03;47.00;96275.88;1045553;28;2554;-62
2021/09/21 01:50:03;;;;;;;;;;;;;;;22.01;46.86;96265.56;1049087;28;990;-60
2021/09/21 01:51:07;;;;;;;;;;;;;;;22.03;47.09;96274.00;1048765;28;1104;-62
2021/09/21 01:51:40;;;;;;;;;;;;;;;22.02;46.81;96272.44;1049125;28;798;-62
2021/09/21 01:52:49;;;;;;;;;;;;;;;22.02;46.87;96277.72;1049057;28;1107;-63
2021/09/21 01:58:47;;;;;;;;;;;;;;;22.02;46.72;96282.19;1049168;28;1070;-63
2021/09/21 01:59:17;;;;;;;;;;;;;;;22.02;46.87;96280.34;1057030;28;971;-62
2021/09/21 01:59:47;;;;;;;;;;;;;;;22.00;46.94;96282.47;1057182;28;1120;-62
2021/09/21 02:00:18;;;;;;;;;;;;;;;22.01;46.71;96289.31;1057091;28;1169;-62
2021/09/21 02:00:48;;;;;;;;;;;;;;;22.01;46.70;96284.03;1057218;28;1170;-62
2021/09/21 02:01:19;;;;;;;;;;;;;;;22.02;46.81;96284.81;1049327;28;1186;-62
2021/09/21 02:01:49;;;;;;;;;;;;;;;22.02;46.74;96290.09;1046757;28;2417;-63
2021/09/21 02:02:20;;;;;;;;;;;;;;;22.02;46.92;96285.63;1048675;28;1171;-63
2021/09/21 02:02:50;;;;;;;;;;;;;;;22.01;47.14;96286.66;1047585;28;1194;-61
2021/09/21 02:03:21;;;;;;;;;;;;;;;22.01;47.02;96286.66;1048825;28;1134;-63
2021/09/21 02:03:52;;;;;;;;;;;;;;;22.00;46.87;96279.81;1046033;28;2020;-63
2021/09/21 02:04:23;;;;;;;;;;;;;;;22.00;46.92;96279.03;1048651;28;1053;-62
2021/09/21 02:04:53;;;;;;;;;;;;;;;22.00;46.81;96279.81;1048881;28;1076;-63
2021/09/21 02:05:23;;;;;;;;;;;;;;;22.00;46.99;96287.75;1048650;28;1204;-61
2021/09/21 02:05:54;;;;;;;;;;;;;;;22.00;46.82;96285.09;1048814;28;1253;-63
2021/09/21 02:06:34;;;;;;;;;;;;;;;21.99;46.86;96283.50;1049202;28;1169;-63
2021/09/21 02:07:04;;;;;;;;;;;;;;;21.99;46.86;96283.50;1044413;28;1479;-61
2021/09/21 02:07:34;;;;;;;;;;;;;;;21.99;46.60;96283.50;1048559;28;1150;-63
2021/09/21 02:08:05;;;;;;;;;;;;;;;21.99;46.97;96278.22;1048624;28;1109;-63
2021/09/21 02:08:35;;;;;;;;;;;;;;;22.00;47.03;96284.31;1048372;28;1201;-62
2021/09/21 02:09:06;;;;;;;;;;;;;;;21.98;46.95;96281.94;1056377;28;2095;-64
2021/09/21 02:09:37;;;;;;;;;;;;;;;21.99;46.66;96278.22;1047011;28;1501;-63
2021/09/21 02:10:07;;;;;;;;;;;;;;;21.99;46.92;96283.50;1048349;28;1089;-63
2021/09/21 02:10:37;;;;;;;;;;;;;;;21.99;46.69;96278.22;1048641;28;1118;-64
2021/09/21 02:11:08;;;;;;;;;;;;;;;21.99;46.76;96283.50;1048569;28;1123;-64
2021/09/21 02:11:38;;;;;;;;;;;;;;;21.99;47.17;96282.75;1045435;28;1653;-64
2021/09/21 02:12:09;;;;;;;;;;;;;;;21.98;46.72;96276.66;1048658;28;1258;-63
2021/09/21 02:12:39;;;;;;;;;;;;;;;21.98;46.66;96278.50;1048585;28;1185;-63
2021/09/21 02:13:09;;;;;;;;;;;;;;;21.98;46.81;96275.88;1048387;28;1105;-63
2021/09/21 02:13:40;;;;;;;;;;;;;;;21.99;46.83;96283.50;1056162;28;1523;-62
2021/09/21 02:14:13;;;;;;;;;;;;;;;21.97;46.84;96283.00;1056811;28;1247;-63
2021/09/21 02:14:43;;;;;;;;;;;;;;;21.99;46.75;96285.38;1047513;28;2453;-62
2021/09/21 02:15:13;;;;;;;;;;;;;;;21.98;47.05;96281.94;1048211;28;1103;-63
2021/09/21 02:15:44;;;;;;;;;;;;;;;21.99;47.13;96282.75;1044486;28;1324;-62
2021/09/21 02:16:14;;;;;;;;;;;;;;;21.98;47.13;96287.22;1045020;28;1187;-63
2021/09/21 02:16:45;;;;;;;;;;;;;;;21.98;46.92;96283.78;1046216;28;1049;-63
2021/09/21 02:17:16;;;;;;;;;;;;;;;21.98;46.95;96281.94;1048829;28;1960;-63
2021/09/21 02:17:46;;;;;;;;;;;;;;;21.98;47.15;96283.78;1048010;28;1114;-63
2021/09/21 02:18:16;;;;;;;;;;;;;;;21.97;47.19;96283.00;1049030;28;972;-63
2021/09/21 02:18:47;;;;;;;;;;;;;;;21.97;47.09;96283.00;1049044;28;1024;-63
2021/09/21 02:19:17;;;;;;;;;;;;;;;21.97;47.14;96279.59;1048816;28;1154;-63
2021/09/21 02:19:47;;;;;;;;;;;;;;;21.97;46.83;96285.63;1046236;28;2414;-63
2021/09/21 02:20:18;;;;;;;;;;;;;;;21.98;47.12;96281.16;1049023;28;1000;-63
2021/09/21 02:20:48;;;;;;;;;;;;;;;21.97;46.86;96285.63;1049106;28;1422;-63
2021/09/21 02:21:18;;;;;;;;;;;;;;;21.97;46.76;96285.63;1046858;28;1345;-63
2021/09/21 02:21:49;;;;;;;;;;;;;;;21.97;46.71;96284.88;1047845;28;1083;-63
2021/09/21 02:22:19;;;;;;;;;;;;;;;21.96;46.60;96286.72;1049107;28;1094;-62
2021/09/21 02:22:49;;;;;;;;;;;;;;;21.96;46.80;96289.34;1048696;28;1056;-63
2021/09/21 02:23:20;;;;;;;;;;;;;;;21.96;46.81;96286.72;1048098;28;2068;-63
2021/09/21 02:23:50;;;;;;;;;;;;;;;21.97;46.64;96290.13;1047294;28;1476;-63
2021/09/21 02:24:22;;;;;;;;;;;;;;;21.96;46.90;96289.34;1048695;28;1166;-63
2021/09/21 02:24:55;;;;;;;;;;;;;;;21.97;46.75;96284.88;1048279;28;1532;-63
2021/09/21 02:25:25;;;;;;;;;;;;;;;21.97;46.66;96288.28;1048282;28;1284;-63
2021/09/21 02:25:55;;;;;;;;;;;;;;;21.96;46.62;96284.06;1048779;28;1108;-63
2021/09/21 02:26:26;;;;;;;;;;;;;;;21.97;46.96;96282.22;1048591;28;1159;-63
2021/09/21 02:26:57;;;;;;;;;;;;;;;21.95;46.85;96282.47;1049104;28;1068;-63
2021/09/21 02:27:28;;;;;;;;;;;;;;;21.96;46.77;96284.06;1044903;28;891;-63
2021/09/21 02:27:58;;;;;;;;;;;;;;;21.96;46.68;96284.06;1046979;28;954;-63
2021/09/21 02:28:29;;;;;;;;;;;;;;;21.97;46.74;96285.63;1049269;28;894;-64
2021/09/21 02:28:59;;;;;;;;;;;;;;;21.95;46.72;96286.97;1048902;28;1139;-64
2021/09/21 02:29:30;;;;;;;;;;;;;;;21.96;46.99;96286.72;1047223;28;2116;-63
2021/09/21 02:30:00;;;;;;;;;;;;;;;21.97;47.04;96287.50;1048564;28;1119;-63
2021/09/21 02:30:30;;;;;;;;;;;;;;;21.96;46.82;96289.34;1048433;28;1204;-62
2021/09/21 02:31:00;;;;;;;;;;;;;;;21.96;46.82;96283.28;1047867;28;1535;-64
2021/09/21 02:31:31;;;;;;;;;;;;;;;21.96;46.89;96291.97;1048779;28;1375;-63
2021/09/21 02:32:01;;;;;;;;;;;;;;;21.96;46.90;96288.56;1048890;28;1084;-63
2021/09/21 02:32:32;;;;;;;;;;;;;;;21.94;46.62;96278.25;1047705;28;2534;-64
2021/09/21 02:33:02;;;;;;;;;;;;;;;21.96;46.95;96291.19;1046892;28;1009;-63
2021/09/21 02:33:33;;;;;;;;;;;;;;;21.95;46.89;96290.38;1048120;28;1515;-63
2021/09/21 02:34:03;;;;;;;;;;;;;;;21.96;46.95;96296.47;1047963;28;1060;-63
2021/09/21 02:34:33;;;;;;;;;;;;;;;21.94;46.88;96291.47;1047400;28;2020;-63
2021/09/21 02:35:04;;;;;;;;;;;;;;;21.95;46.71;96292.25;1048827;28;918;-63
2021/09/21 02:35:34;;;;;;;;;;;;;;;21.94;47.03;96291.47;1049065;28;1657;-62
2021/09/21 02:36:05;;;;;;;;;;;;;;;21.94;46.69;96295.94;1048614;28;1639;-63
2021/09/21 02:36:40;;;;;;;;;;;;;;;21.94;46.74;96299.38;1048732;28;1188;-63
2021/09/21 02:37:12;;;;;;;;;;;;;;;21.94;46.97;96298.59;1048667;28;1910;-63
2021/09/21 02:37:42;;;;;;;;;;;;;;;21.93;46.92;96300.44;1048369;28;1076;-64
2021/09/21 02:38:13;;;;;;;;;;;;;;;21.93;46.73;96300.44;1048524;28;1201;-63
2021/09/21 02:38:43;;;;;;;;;;;;;;;21.93;46.80;96303.06;1044492;28;1168;-63
2021/09/21 02:39:13;;;;;;;;;;;;;;;21.93;46.95;96297.03;1044673;28;1068;-63
2021/09/21 02:39:44;;;;;;;;;;;;;;;21.93;46.98;96295.16;1042703;28;2145;-63
2021/09/21 02:40:14;;;;;;;;;;;;;;;21.94;46.80;96298.59;1044432;28;1450;-63
2021/09/21 02:40:45;;;;;;;;;;;;;;;21.94;47.07;96301.22;1048417;28;1181;-62
2021/09/21 02:41:15;;;;;;;;;;;;;;;21.93;46.65;96300.44;1048660;28;1111;-63
2021/09/21 02:41:45;;;;;;;;;;;;;;;21.94;46.91;96303.88;1048691;28;1072;-63
2021/09/21 02:42:16;;;;;;;;;;;;;;;21.94;46.90;96301.22;1047490;28;1595;-64
2021/09/21 02:42:46;;;;;;;;;;;;;;;21.93;46.83;96295.16;1048266;28;1298;-62
2021/09/21 02:43:16;;;;;;;;;;;;;;;21.93;46.91;96297.78;1048499;28;1229;-63
2021/09/21 02:43:47;;;;;;;;;;;;;;;21.93;47.07;96304.94;1048579;28;1116;-63
2021/09/21 02:44:17;;;;;;;;;;;;;;;21.92;46.77;96304.13;1048172;28;1087;-63
2021/09/21 02:44:47;;;;;;;;;;;;;;;21.93;46.88;96302.31;1046513;28;2065;-63
2021/09/21 02:45:18;;;;;;;;;;;;;;;21.93;46.96;96305.72;1048440;28;1510;-62
2021/09/21 02:45:48;;;;;;;;;;;;;;;21.93;46.94;96297.78;1048777;28;1104;-63
2021/09/21 02:46:18;;;;;;;;;;;;;;;21.92;46.92;96293.59;1048794;28;1166;-61
2021/09/21 02:46:50;;;;;;;;;;;;;;;21.93;46.65;96297.78;1048900;28;1120;-63
2021/09/21 02:47:21;;;;;;;;;;;;;;;21.92;46.81;96293.59;1049041;28;1079;-63
2021/09/21 02:47:51;;;;;;;;;;;;;;;21.92;46.75;96293.59;1047387;28;1100;-63
2021/09/21 02:48:21;;;;;;;;;;;;;;;21.92;46.83;96290.94;1048404;28;1209;-63
2021/09/21 02:48:52;;;;;;;;;;;;;;;21.92;46.88;96293.59;1048579;28;1076;-63
2021/09/21 02:49:22;;;;;;;;;;;;;;;21.92;46.81;96293.59;1048618;28;1146;-63
2021/09/21 02:49:53;;;;;;;;;;;;;;;21.92;46.63;96290.16;1047018;28;2073;-63
2021/09/21 02:50:23;;;;;;;;;;;;;;;21.92;46.64;96301.50;1048588;28;1131;-63
2021/09/21 02:50:53;;;;;;;;;;;;;;;21.93;47.00;96297.03;1048542;28;1059;-63
2021/09/21 02:51:24;;;;;;;;;;;;;;;21.92;46.71;96296.22;1048597;28;1210;-63
2021/09/21 02:51:54;;;;;;;;;;;;;;;21.92;46.95;96298.88;1048122;28;1631;-63
2021/09/21 02:52:24;;;;;;;;;;;;;;;21.91;46.86;96305.19;1048769;28;1146;-63
2021/09/21 02:52:55;;;;;;;;;;;;;;;21.91;46.86;96297.25;1048758;28;995;-61
2021/09/21 02:53:25;;;;;;;;;;;;;;;21.92;47.01;96309.41;1048954;28;1155;-63
2021/09/21 02:53:55;;;;;;;;;;;;;;;21.92;46.97;96304.13;1048886;28;1235;-64